Time;durP1;ratioP1;P1;durP2;ratioP2;P2;SDS_P1;SDS_P2;PMS_P1;PMS_P2;Temp;Humidity;BMP_temperature;BMP_pressure;BME280_temperature;BME280_humidity;BME280_pressure;Samples;Min_cycle;Max_cycle;Signal;HPM_P1;HPM_P2
2022/10/30 00:02:03;;;;;;;19.13;9.52;;;;;;;;;;5072861;28;20044;-64
2022/10/30 00:04:29;;;;;;;25.70;9.93;;;;;;;;;;5107150;28;20048;-64
2022/10/30 00:06:55;;;;;;;18.45;9.93;;;;;;;;;;5074357;28;20080;-64
2022/10/30 00:09:21;;;;;;;22.75;9.27;;;;;;;;;;5073753;28;20044;-64
2022/10/30 00:11:47;;;;;;;20.02;10.25;;;;;;;;;;5074330;28;20035;-64
2022/10/30 00:14:13;;;;;;;23.92;11.60;;;;;;;;;;5073911;28;20095;-64
2022/10/30 00:16:39;;;;;;;21.73;10.00;;;;;;;;;;5072283;28;20072;-64
2022/10/30 00:19:05;;;;;;;21.23;9.82;;;;;;;;;;5074150;28;20075;-64
2022/10/30 00:21:32;;;;;;;26.83;10.27;;;;;;;;;;5074170;28;20044;-64
2022/10/30 00:23:58;;;;;;;20.13;9.98;;;;;;;;;;5073581;28;20129;-64
2022/10/30 00:26:24;;;;;;;21.92;10.23;;;;;;;;;;5072410;28;20094;-64
2022/10/30 00:28:51;;;;;;;17.67;9.85;;;;;;;;;;5073557;28;20143;-64
2022/10/30 00:31:17;;;;;;;23.02;10.25;;;;;;;;;;5073495;28;20037;-64
2022/10/30 00:33:43;;;;;;;24.95;10.05;;;;;;;;;;5073822;28;20075;-64
2022/10/30 00:36:09;;;;;;;22.58;10.27;;;;;;;;;;5072612;28;20513;-64
2022/10/30 00:38:35;;;;;;;22.48;9.10;;;;;;;;;;5073410;28;20584;-64
2022/10/30 00:41:01;;;;;;;24.33;10.05;;;;;;;;;;5073491;28;20044;-64
2022/10/30 00:43:38;;;;;;;18.40;9.13;;;;;;;;;;5072235;28;20048;-64
2022/10/30 00:46:13;;;;;;;24.00;9.05;;;;;;;;;;5073339;28;20040;-64
2022/10/30 00:48:39;;;;;;;27.23;9.48;;;;;;;;;;5105849;28;20498;-64
2022/10/30 00:51:07;;;;;;;24.10;9.63;;;;;;;;;;5073300;28;20076;-64
2022/10/30 00:53:33;;;;;;;18.48;9.18;;;;;;;;;;5073159;28;20086;-64
2022/10/30 00:56:02;;;;;;;22.90;8.88;;;;;;;;;;5073624;28;20371;-64
2022/10/30 00:58:35;;;;;;;22.88;9.50;;;;;;;;;;5105989;28;20048;-64
2022/10/30 01:01:03;;;;;;;22.02;9.20;;;;;;;;;;5072928;28;20127;-64
2022/10/30 01:03:30;;;;;;;18.00;9.43;;;;;;;;;;5073495;28;20047;-64
2022/10/30 01:06:02;;;;;;;19.02;8.88;;;;;;;;;;5072926;28;20040;-64
2022/10/30 01:08:28;;;;;;;19.35;9.45;;;;;;;;;;5072794;28;20447;-64
2022/10/30 01:10:56;;;;;;;21.17;9.20;;;;;;;;;;5070706;28;20431;-64
2022/10/30 01:13:23;;;;;;;23.35;9.30;;;;;;;;;;5072746;28;20053;-64
2022/10/30 01:16:04;;;;;;;19.00;8.80;;;;;;;;;;5072846;28;20720;-64
2022/10/30 01:18:35;;;;;;;23.10;10.02;;;;;;;;;;5073008;28;20131;-64
2022/10/30 01:21:01;;;;;;;21.00;9.85;;;;;;;;;;5072875;28;20044;-64
2022/10/30 01:23:27;;;;;;;16.33;8.57;;;;;;;;;;5072594;28;20070;-64
2022/10/30 01:26:11;;;;;;;15.02;8.88;;;;;;;;;;5073052;28;20426;-64
2022/10/30 01:28:49;;;;;;;22.77;9.75;;;;;;;;;;5072957;28;20059;-64
2022/10/30 01:31:22;;;;;;;24.23;9.68;;;;;;;;;;5070920;28;20614;-64
2022/10/30 01:33:48;;;;;;;20.15;9.57;;;;;;;;;;5072532;28;20036;-64
2022/10/30 01:36:20;;;;;;;27.05;9.80;;;;;;;;;;5072730;28;20151;-64
2022/10/30 01:38:46;;;;;;;;;;;;;;;;;;5072979;28;20126;-64
2022/10/30 01:41:12;;;;;;;22.65;9.65;;;;;;;;;;5072593;28;19979;-64
2022/10/30 01:43:39;;;;;;;19.95;9.43;;;;;;;;;;5072478;28;20368;-64
2022/10/30 01:46:15;;;;;;;24.42;10.10;;;;;;;;;;5072250;28;20386;-64
2022/10/30 01:49:06;;;;;;;23.13;10.43;;;;;;;;;;5070644;28;20138;-64
2022/10/30 01:52:01;;;;;;;21.40;10.32;;;;;;;;;;5071824;28;20036;-64
2022/10/30 01:54:32;;;;;;;25.02;10.02;;;;;;;;;;5071326;28;20055;-64
2022/10/30 01:57:04;;;;;;;17.03;9.97;;;;;;;;;;5072433;28;20065;-64
2022/10/30 01:59:37;;;;;;;17.30;9.70;;;;;;;;;;5104116;28;20071;-64
2022/10/30 02:02:04;;;;;;;23.00;10.57;;;;;;;;;;5072167;28;20040;-64
2022/10/30 02:04:30;;;;;;;22.42;9.30;;;;;;;;;;5072171;28;20566;-64
2022/10/30 02:06:56;;;;;;;25.40;10.82;;;;;;;;;;5071676;28;20100;-64
2022/10/30 02:09:23;;;;;;;22.88;9.90;;;;;;;;;;5070288;28;20040;-64
2022/10/30 02:11:51;;;;;;;21.60;9.77;;;;;;;;;;5070757;28;20040;-64
2022/10/30 02:14:20;;;;;;;24.27;10.18;;;;;;;;;;5069793;28;20041;-64
2022/10/30 02:16:49;;;;;;;18.63;10.07;;;;;;;;;;5072047;28;20390;-64
2022/10/30 02:19:16;;;;;;;17.88;9.00;;;;;;;;;;5070504;28;20101;-64
2022/10/30 02:21:42;;;;;;;21.02;9.63;;;;;;;;;;5071528;28;20043;-64
2022/10/30 02:24:08;;;;;;;23.10;9.48;;;;;;;;;;5071801;28;20462;-64
2022/10/30 02:26:34;;;;;;;32.03;10.05;;;;;;;;;;5071795;28;20044;-64
2022/10/30 02:29:00;;;;;;;22.33;9.60;;;;;;;;;;5071249;28;20051;-64
2022/10/30 02:31:26;;;;;;;25.00;10.82;;;;;;;;;;5070069;28;20047;-64
2022/10/30 02:33:52;;;;;;;21.75;9.77;;;;;;;;;;5071804;28;20452;-64
2022/10/30 02:36:18;;;;;;;22.20;10.23;;;;;;;;;;5071211;28;20044;-64
2022/10/30 02:38:44;;;;;;;23.90;10.40;;;;;;;;;;5070103;28;20041;-64
2022/10/30 02:41:11;;;;;;;22.67;10.90;;;;;;;;;;5069822;28;20128;-64
2022/10/30 02:43:37;;;;;;;19.17;9.88;;;;;;;;;;5071060;28;20141;-64
2022/10/30 02:46:04;;;;;;;22.70;10.35;;;;;;;;;;5071490;28;20033;-64
2022/10/30 02:48:31;;;;;;;25.55;10.27;;;;;;;;;;5071252;28;20139;-64
2022/10/30 02:51:00;;;;;;;29.05;10.63;;;;;;;;;;5070803;28;20059;-64
2022/10/30 02:53:26;;;;;;;22.73;9.85;;;;;;;;;;5071218;28;20039;-64
2022/10/30 02:55:52;;;;;;;18.30;9.52;;;;;;;;;;5103915;28;20044;-64
2022/10/30 02:58:18;;;;;;;21.55;10.32;;;;;;;;;;5070604;28;20127;-64
2022/10/30 03:00:44;;;;;;;19.48;9.93;;;;;;;;;;5071169;28;20134;-64
2022/10/30 03:03:10;;;;;;;23.60;10.13;;;;;;;;;;5070882;28;20040;-64
2022/10/30 03:05:36;;;;;;;22.77;10.75;;;;;;;;;;5070727;28;20037;-64
2022/10/30 03:08:02;;;;;;;24.25;10.32;;;;;;;;;;5069608;28;20064;-64
2022/10/30 03:10:28;;;;;;;22.23;9.40;;;;;;;;;;5070752;28;20060;-64
2022/10/30 03:12:54;;;;;;;28.92;10.20;;;;;;;;;;5070178;28;20053;-64
2022/10/30 03:15:20;;;;;;;16.25;9.98;;;;;;;;;;5069297;28;20078;-64
2022/10/30 03:17:48;;;;;;;22.30;10.20;;;;;;;;;;5070933;28;20494;-64
2022/10/30 03:20:14;;;;;;;25.70;10.60;;;;;;;;;;5069341;28;20044;-64
2022/10/30 03:22:40;;;;;;;25.85;10.75;;;;;;;;;;5069653;28;20368;-64
2022/10/30 03:25:06;;;;;;;23.15;10.52;;;;;;;;;;5070847;28;20094;-64
2022/10/30 03:27:32;;;;;;;21.33;10.25;;;;;;;;;;5070559;28;20036;-64
2022/10/30 03:29:59;;;;;;;19.35;9.88;;;;;;;;;;5070869;28;20600;-64
2022/10/30 03:32:25;;;;;;;27.58;10.75;;;;;;;;;;5069409;28;20036;-64
2022/10/30 03:34:51;;;;;;;22.67;10.77;;;;;;;;;;5073834;28;20079;-64
2022/10/30 03:37:17;;;;;;;26.92;10.60;;;;;;;;;;5075809;28;20115;-64
2022/10/30 03:39:43;;;;;;;22.70;11.05;;;;;;;;;;5077464;28;20155;-64
2022/10/30 03:42:09;;;;;;;22.73;10.30;;;;;;;;;;5075874;28;20054;-64
2022/10/30 03:44:35;;;;;;;18.23;10.98;;;;;;;;;;5077285;28;20048;-64
2022/10/30 03:47:01;;;;;;;25.80;11.00;;;;;;;;;;5075840;28;20037;-64
2022/10/30 03:49:27;;;;;;;21.83;10.68;;;;;;;;;;5075762;28;20044;-64
2022/10/30 03:51:53;;;;;;;23.73;10.73;;;;;;;;;;5075692;28;20094;-64
2022/10/30 03:54:19;;;;;;;20.95;10.82;;;;;;;;;;5075924;28;20045;-64
2022/10/30 03:56:45;;;;;;;24.70;11.70;;;;;;;;;;5077269;28;20128;-64
2022/10/30 03:59:11;;;;;;;20.05;10.90;;;;;;;;;;5076857;28;20036;-64
2022/10/30 04:01:38;;;;;;;22.30;10.80;;;;;;;;;;5077156;28;20387;-64
2022/10/30 04:04:04;;;;;;;25.98;11.43;;;;;;;;;;5077152;28;20044;-64
2022/10/30 04:06:30;;;;;;;29.70;10.80;;;;;;;;;;5076633;28;20040;-64
2022/10/30 04:08:56;;;;;;;24.08;10.60;;;;;;;;;;5077018;28;20054;-64
2022/10/30 04:11:22;;;;;;;23.48;10.32;;;;;;;;;;5077225;28;20044;-64
2022/10/30 04:13:48;;;;;;;30.15;11.43;;;;;;;;;;5076282;28;20105;-64
2022/10/30 04:16:14;;;;;;;27.38;10.70;;;;;;;;;;5077257;28;20076;-64
2022/10/30 04:18:40;;;;;;;21.13;10.43;;;;;;;;;;5075240;28;20045;-64
2022/10/30 04:21:06;;;;;;;23.73;10.55;;;;;;;;;;5076725;28;20045;-64
2022/10/30 04:23:32;;;;;;;27.33;11.45;;;;;;;;;;5075778;28;20055;-64
2022/10/30 04:26:00;;;;;;;21.35;11.45;;;;;;;;;;5076892;28;20058;-64
2022/10/30 04:28:27;;;;;;;23.40;11.00;;;;;;;;;;5075227;28;20052;-64
2022/10/30 04:30:53;;;;;;;22.42;11.52;;;;;;;;;;5076481;28;20043;-64
2022/10/30 04:33:19;;;;;;;26.17;11.75;;;;;;;;;;5075309;28;20119;-64
2022/10/30 04:35:45;;;;;;;21.40;10.80;;;;;;;;;;5076609;28;20580;-64
2022/10/30 04:38:12;;;;;;;25.83;12.38;;;;;;;;;;5076778;28;20356;-64
2022/10/30 04:40:40;;;;;;;21.85;11.32;;;;;;;;;;5075513;28;20364;-64
2022/10/30 04:43:06;;;;;;;19.45;10.27;;;;;;;;;;5109252;28;20131;-64
2022/10/30 04:45:33;;;;;;;25.75;11.27;;;;;;;;;;5108034;28;20040;-64
2022/10/30 04:48:03;;;;;;;22.15;10.55;;;;;;;;;;5073133;28;20484;-64
2022/10/30 04:50:30;;;;;;;22.20;11.30;;;;;;;;;;5073406;28;20124;-64
2022/10/30 04:52:59;;;;;;;24.50;10.75;;;;;;;;;;5073548;28;20391;-64
2022/10/30 04:55:25;;;;;;;27.70;11.68;;;;;;;;;;5073698;28;20039;-64
2022/10/30 04:57:55;;;;;;;23.73;10.98;;;;;;;;;;5071881;28;20040;-64
2022/10/30 05:00:21;;;;;;;25.42;11.82;;;;;;;;;;5072007;28;20048;-64
2022/10/30 05:02:47;;;;;;;23.42;11.82;;;;;;;;;;5073350;28;20032;-64
2022/10/30 05:05:13;;;;;;;24.85;11.73;;;;;;;;;;5072929;28;20085;-64
2022/10/30 05:07:39;;;;;;;29.08;11.20;;;;;;;;;;5073343;28;20051;-64
2022/10/30 05:10:05;;;;;;;22.70;10.90;;;;;;;;;;5071498;28;20044;-64
2022/10/30 05:12:31;;;;;;;21.85;11.20;;;;;;;;;;5072221;28;20063;-64
2022/10/30 05:14:57;;;;;;;26.73;11.65;;;;;;;;;;5073077;28;20048;-64
2022/10/30 05:17:23;;;;;;;22.58;11.45;;;;;;;;;;5072891;28;20120;-64
2022/10/30 05:19:49;;;;;;;22.27;11.27;;;;;;;;;;5071046;28;20119;-64
2022/10/30 05:22:15;;;;;;;22.13;10.82;;;;;;;;;;5071687;28;20048;-64
2022/10/30 05:24:41;;;;;;;23.20;12.00;;;;;;;;;;5073009;28;20032;-64
2022/10/30 05:27:07;;;;;;;18.48;11.13;;;;;;;;;;5072452;28;20064;-64
2022/10/30 05:29:33;;;;;;;27.45;12.10;;;;;;;;;;5072753;28;20098;-64
2022/10/30 05:31:59;;;;;;;23.52;11.82;;;;;;;;;;5072683;28;20728;-64
2022/10/30 05:34:25;;;;;;;24.55;11.52;;;;;;;;;;5072382;28;20128;-64
2022/10/30 05:36:51;;;;;;;20.92;11.07;;;;;;;;;;5072692;28;20068;-64
2022/10/30 05:39:17;;;;;;;30.45;12.00;;;;;;;;;;5072589;28;20047;-64
2022/10/30 05:41:43;;;;;;;22.15;10.75;;;;;;;;;;5072309;28;20044;-64
2022/10/30 05:44:09;;;;;;;25.80;11.35;;;;;;;;;;5071314;28;20112;-64
2022/10/30 05:46:35;;;;;;;25.55;11.88;;;;;;;;;;5072506;28;20056;-64
2022/10/30 05:49:02;;;;;;;25.15;11.52;;;;;;;;;;5071951;28;20040;-64
2022/10/30 05:51:28;;;;;;;26.42;11.30;;;;;;;;;;5072438;28;20062;-64
2022/10/30 05:53:54;;;;;;;25.42;11.65;;;;;;;;;;5072400;28;20527;-64
2022/10/30 05:56:20;;;;;;;26.67;11.13;;;;;;;;;;5070524;28;20044;-64
2022/10/30 05:58:49;;;;;;;32.05;11.95;;;;;;;;;;5072124;28;20040;-64
2022/10/30 06:01:15;;;;;;;21.38;12.30;;;;;;;;;;5104667;28;20047;-64
2022/10/30 06:03:42;;;;;;;24.02;11.52;;;;;;;;;;5071523;28;20041;-64
2022/10/30 06:06:08;;;;;;;26.77;11.88;;;;;;;;;;5072037;28;20036;-64
2022/10/30 06:08:34;;;;;;;25.55;11.32;;;;;;;;;;5072121;28;20441;-64
2022/10/30 06:11:00;;;;;;;22.90;11.27;;;;;;;;;;5071673;28;20094;-64
2022/10/30 06:13:26;;;;;;;24.58;11.95;;;;;;;;;;5071634;28;20053;-64
2022/10/30 06:15:54;;;;;;;24.05;11.43;;;;;;;;;;5071995;28;20044;-64
2022/10/30 06:18:20;;;;;;;22.30;11.25;;;;;;;;;;5070065;28;20087;-64
2022/10/30 06:20:47;;;;;;;29.75;11.93;;;;;;;;;;5071551;28;20045;-64
2022/10/30 06:23:14;;;;;;;28.48;12.38;;;;;;;;;;5071600;28;20048;-64
2022/10/30 06:25:40;;;;;;;22.77;11.80;;;;;;;;;;5069960;28;20069;-64
2022/10/30 06:28:08;;;;;;;27.20;12.80;;;;;;;;;;5071712;28;20414;-64
2022/10/30 06:30:34;;;;;;;27.13;12.68;;;;;;;;;;5071642;28;20387;-64
2022/10/30 06:33:01;;;;;;;23.02;11.52;;;;;;;;;;5070924;28;20041;-64
2022/10/30 06:35:28;;;;;;;24.60;11.63;;;;;;;;;;5071746;28;20043;-64
2022/10/30 06:37:55;;;;;;;19.42;11.98;;;;;;;;;;5070003;28;20125;-64
2022/10/30 06:40:22;;;;;;;19.15;11.77;;;;;;;;;;5070819;28;20493;-64
2022/10/30 06:42:49;;;;;;;25.42;12.68;;;;;;;;;;5071476;28;20048;-64
2022/10/30 06:45:16;;;;;;;25.98;12.30;;;;;;;;;;5071412;28;20103;-64
2022/10/30 06:47:42;;;;;;;21.63;11.18;;;;;;;;;;5071040;28;20053;-64
2022/10/30 06:50:09;;;;;;;28.20;13.27;;;;;;;;;;5071029;28;20045;-64
2022/10/30 06:52:35;;;;;;;32.88;12.90;;;;;;;;;;5069971;28;20422;-64
2022/10/30 06:55:02;;;;;;;25.65;11.70;;;;;;;;;;5069593;28;20044;-64
2022/10/30 06:57:28;;;;;;;26.35;12.93;;;;;;;;;;5071471;28;20457;-64
2022/10/30 06:59:54;;;;;;;23.30;13.05;;;;;;;;;;5071271;28;20078;-64
2022/10/30 07:02:20;;;;;;;27.70;12.32;;;;;;;;;;5069516;28;20193;-64
2022/10/30 07:04:46;;;;;;;27.38;12.45;;;;;;;;;;5071234;28;20441;-64
2022/10/30 07:07:12;;;;;;;25.75;12.40;;;;;;;;;;5069655;28;20048;-64
2022/10/30 07:09:38;;;;;;;19.42;12.05;;;;;;;;;;5069743;28;20455;-64
2022/10/30 07:12:05;;;;;;;24.58;12.88;;;;;;;;;;5069476;28;20047;-64
2022/10/30 07:14:31;;;;;;;21.30;12.57;;;;;;;;;;5069396;28;20460;-64
2022/10/30 07:16:57;;;;;;;29.52;12.85;;;;;;;;;;5069265;28;20147;-64
2022/10/30 07:19:23;;;;;;;23.45;12.80;;;;;;;;;;5069249;28;20052;-64
2022/10/30 07:21:49;;;;;;;31.50;13.43;;;;;;;;;;5069495;28;20159;-64
2022/10/30 07:24:15;;;;;;;29.60;13.20;;;;;;;;;;5070374;28;20124;-64
2022/10/30 07:26:41;;;;;;;18.50;12.20;;;;;;;;;;5070538;28;20044;-64
2022/10/30 07:29:07;;;;;;;28.83;12.52;;;;;;;;;;5069289;28;20044;-64
2022/10/30 07:31:33;;;;;;;27.83;12.88;;;;;;;;;;5070730;28;20037;-64
2022/10/30 07:33:59;;;;;;;28.88;13.63;;;;;;;;;;5068811;28;20048;-64
2022/10/30 07:36:26;;;;;;;21.65;13.40;;;;;;;;;;5070939;28;20047;-64
2022/10/30 07:38:52;;;;;;;25.48;14.10;;;;;;;;;;5070426;28;20123;-64
2022/10/30 07:41:19;;;;;;;30.58;13.27;;;;;;;;;;5070488;28;20505;-64
2022/10/30 07:43:45;;;;;;;30.50;14.32;;;;;;;;;;5069383;28;20071;-64
2022/10/30 07:46:11;;;;;;;27.73;15.52;;;;;;;;;;5069394;28;20147;-64
2022/10/30 07:48:37;;;;;;;25.88;14.02;;;;;;;;;;5070451;28;20041;-64
2022/10/30 07:51:04;;;;;;;25.40;13.77;;;;;;;;;;5070681;28;20033;-64
2022/10/30 07:53:30;;;;;;;29.23;14.35;;;;;;;;;;5070602;28;20044;-64
2022/10/30 07:55:57;;;;;;;26.08;16.30;;;;;;;;;;5070252;28;20044;-64
2022/10/30 07:58:23;;;;;;;36.03;16.95;;;;;;;;;;5069227;28;20528;-64
2022/10/30 08:00:49;;;;;;;30.95;16.17;;;;;;;;;;5070303;28;20041;-64
2022/10/30 08:03:15;;;;;;;33.58;16.98;;;;;;;;;;5068695;28;20036;-64
2022/10/30 08:05:41;;;;;;;34.35;17.85;;;;;;;;;;5070484;28;20483;-64
2022/10/30 08:08:08;;;;;;;26.65;15.63;;;;;;;;;;5068957;28;20045;-64
2022/10/30 08:10:34;;;;;;;32.67;16.73;;;;;;;;;;5068468;28;20040;-64
2022/10/30 08:13:00;;;;;;;28.00;15.50;;;;;;;;;;5068906;28;20052;-64
2022/10/30 08:15:26;;;;;;;34.95;16.95;;;;;;;;;;5070267;28;20093;-64
2022/10/30 08:17:52;;;;;;;32.20;16.25;;;;;;;;;;5069996;28;20127;-64
2022/10/30 08:20:20;;;;;;;32.25;17.27;;;;;;;;;;5069494;28;20043;-64
2022/10/30 08:22:47;;;;;;;32.15;16.42;;;;;;;;;;5074227;28;20045;-64
2022/10/30 08:25:13;;;;;;;32.40;17.90;;;;;;;;;;5072128;28;20072;-64
2022/10/30 08:27:39;;;;;;;29.27;17.13;;;;;;;;;;5072748;28;20048;-64
2022/10/30 08:30:05;;;;;;;32.75;17.15;;;;;;;;;;5073763;28;20033;-64
2022/10/30 08:32:32;;;;;;;29.58;16.80;;;;;;;;;;5073440;28;20112;-64
2022/10/30 08:34:58;;;;;;;31.80;17.13;;;;;;;;;;5072531;28;20048;-64
2022/10/30 08:37:24;;;;;;;35.83;17.90;;;;;;;;;;5073901;28;20047;-64
2022/10/30 08:39:50;;;;;;;32.28;17.00;;;;;;;;;;5072144;28;20485;-64
2022/10/30 08:42:16;;;;;;;34.00;17.92;;;;;;;;;;5073764;28;20056;-64
2022/10/30 08:44:42;;;;;;;25.05;16.20;;;;;;;;;;5073856;28;20036;-64
2022/10/30 08:47:08;;;;;;;34.67;17.90;;;;;;;;;;5071976;28;20138;-64
2022/10/30 08:49:35;;;;;;;31.70;16.70;;;;;;;;;;5073593;28;20048;-64
2022/10/30 08:52:01;;;;;;;34.72;16.85;;;;;;;;;;5072285;28;20046;-64
2022/10/30 08:54:27;;;;;;;24.88;16.00;;;;;;;;;;5073130;28;20040;-64
2022/10/30 08:56:53;;;;;;;27.23;16.50;;;;;;;;;;5073584;28;20041;-64
2022/10/30 08:59:19;;;;;;;34.85;17.00;;;;;;;;;;5073480;28;20044;-64
2022/10/30 09:01:46;;;;;;;28.77;17.75;;;;;;;;;;5072921;28;20048;-64
2022/10/30 09:04:12;;;;;;;34.33;17.40;;;;;;;;;;5073412;28;20071;-64
2022/10/30 09:06:38;;;;;;;29.20;16.95;;;;;;;;;;5073163;28;20421;-64
2022/10/30 09:09:04;;;;;;;32.05;16.85;;;;;;;;;;5072647;28;20094;-64
2022/10/30 09:11:30;;;;;;;33.22;17.63;;;;;;;;;;5073281;28;20363;-64
2022/10/30 09:13:56;;;;;;;33.20;19.20;;;;;;;;;;5072717;28;20057;-64
2022/10/30 09:16:22;;;;;;;28.13;16.67;;;;;;;;;;5072788;28;20041;-64
2022/10/30 09:18:49;;;;;;;30.08;16.75;;;;;;;;;;5071810;28;20076;-64
2022/10/30 09:21:15;;;;;;;28.05;16.20;;;;;;;;;;5073214;28;20059;-64
2022/10/30 09:23:42;;;;;;;30.27;16.52;;;;;;;;;;5070989;28;20047;-64
2022/10/30 09:26:08;;;;;;;31.67;16.27;;;;;;;;;;5072657;28;20564;-64
2022/10/30 09:28:34;;;;;;;30.02;16.73;;;;;;;;;;5071602;28;20041;-64
2022/10/30 09:31:00;;;;;;;30.15;16.77;;;;;;;;;;5072382;28;20160;-64
2022/10/30 09:33:27;;;;;;;26.85;15.75;;;;;;;;;;5072203;28;20033;-64
2022/10/30 09:35:53;;;;;;;34.55;17.00;;;;;;;;;;5072885;28;20037;-64
2022/10/30 09:38:19;;;;;;;33.75;15.80;;;;;;;;;;5104930;28;20124;-64
2022/10/30 09:40:57;;;;;;;32.58;16.17;;;;;;;;;;5072758;28;20036;-64
2022/10/30 09:43:42;;;;;;;31.63;16.63;;;;;;;;;;5072706;28;20086;-64
2022/10/30 09:46:08;;;;;;;30.02;15.85;;;;;;;;;;5070827;28;20028;-64
2022/10/30 09:48:42;;;;;;;33.17;16.48;;;;;;;;;;5072554;28;20085;-64
2022/10/30 09:51:13;;;;;;;31.73;15.80;;;;;;;;;;5072534;28;20467;-64
2022/10/30 09:53:44;;;;;;;31.40;16.73;;;;;;;;;;5070807;28;20082;-64
2022/10/30 09:56:13;;;;;;;31.88;15.50;;;;;;;;;;5072279;28;20240;-64
2022/10/30 09:58:59;;;;;;;34.70;15.98;;;;;;;;;;5072312;28;20044;-64
2022/10/30 10:01:49;;;;;;;27.58;15.48;;;;;;;;;;5071993;28;20046;-64
2022/10/30 10:04:33;;;;;;;26.23;13.88;;;;;;;;;;5070774;28;20052;-64
2022/10/30 10:07:11;;;;;;;27.38;15.15;;;;;;;;;;5070028;28;20044;-64
2022/10/30 10:09:38;;;;;;;28.92;14.70;;;;;;;;;;5070448;28;20044;-64
2022/10/30 10:12:07;;;;;;;26.92;15.00;;;;;;;;;;5070316;28;20426;-64
2022/10/30 10:14:35;;;;;;;32.42;14.13;;;;;;;;;;5053606;28;20044;-64
2022/10/30 10:17:02;;;;;;;27.60;14.10;;;;;;;;;;5070379;28;20037;-64
2022/10/30 10:19:40;;;;;;;26.55;14.05;;;;;;;;;;5071573;28;20086;-64
2022/10/30 10:22:24;;;;;;;28.48;13.52;;;;;;;;;;5071609;28;20462;-64
2022/10/30 10:24:51;;;;;;;24.73;13.38;;;;;;;;;;5071826;28;20040;-64
2022/10/30 10:27:29;;;;;;;23.52;12.52;;;;;;;;;;5071578;28;20490;-64
2022/10/30 10:30:11;;;;;;;24.50;12.50;;;;;;;;;;5071247;28;20084;-64
2022/10/30 10:32:46;;;;;;;24.50;12.77;;;;;;;;;;5071396;28;20086;-64
2022/10/30 10:35:22;;;;;;;28.35;13.40;;;;;;;;;;5071554;28;20091;-64
2022/10/30 10:37:51;;;;;;;24.98;12.60;;;;;;;;;;5071271;28;20039;-64
2022/10/30 10:40:35;;;;;;;34.05;13.20;;;;;;;;;;5069825;28;20047;-64
2022/10/30 10:43:01;;;;;;;28.92;12.57;;;;;;;;;;5071541;28;20115;-64
2022/10/30 10:45:33;;;;;;;26.50;13.48;;;;;;;;;;5068617;28;20120;-64
2022/10/30 10:48:06;;;;;;;27.38;13.15;;;;;;;;;;5071586;28;20040;-64
2022/10/30 10:50:32;;;;;;;;;;;;;;;;;;5070254;28;20059;-64
2022/10/30 10:53:05;;;;;;;23.65;11.52;;;;;;;;;;5070980;28;19972;-64
2022/10/30 10:55:36;;;;;;;25.08;12.32;;;;;;;;;;5071116;28;20040;-64
2022/10/30 10:58:25;;;;;;;26.83;12.30;;;;;;;;;;5070032;28;20576;-64
2022/10/30 11:00:51;;;;;;;26.02;11.50;;;;;;;;;;5069112;28;20036;-64
2022/10/30 11:03:21;;;;;;;23.85;12.68;;;;;;;;;;5070946;28;20370;-64
2022/10/30 11:05:50;;;;;;;25.35;14.52;;;;;;;;;;5069518;28;20043;-64
2022/10/30 11:08:20;;;;;;;24.67;14.20;;;;;;;;;;5070650;28;20044;-64
2022/10/30 11:10:48;;;;;;;31.15;13.57;;;;;;;;;;5071048;28;20547;-64
2022/10/30 11:13:14;;;;;;;30.75;14.18;;;;;;;;;;5070510;28;20088;-64
2022/10/30 11:15:59;;;;;;;33.20;14.88;;;;;;;;;;5068987;28;20063;-64
2022/10/30 11:18:25;;;;;;;28.80;13.80;;;;;;;;;;5069578;28;20040;-64
2022/10/30 11:20:54;;;;;;;34.42;13.80;;;;;;;;;;5070887;28;20135;-64
2022/10/30 11:23:31;;;;;;;21.42;13.05;;;;;;;;;;5070707;28;20036;-64
2022/10/30 11:25:57;;;;;;;26.40;12.85;;;;;;;;;;5069598;28;20043;-64
2022/10/30 11:28:40;;;;;;;21.25;12.23;;;;;;;;;;5070149;28;20043;-64
2022/10/30 11:31:36;;;;;;;29.27;14.07;;;;;;;;;;5070781;28;20383;-64
2022/10/30 11:34:17;;;;;;;23.70;13.75;;;;;;;;;;5070800;28;20094;-64
2022/10/30 11:36:47;;;;;;;27.98;13.55;;;;;;;;;;5068891;28;20039;-64
2022/10/30 11:39:21;;;;;;;22.55;13.55;;;;;;;;;;5070472;28;20133;-64
2022/10/30 11:41:54;;;;;;;31.00;13.57;;;;;;;;;;5070860;28;20047;-64
2022/10/30 11:44:20;;;;;;;29.95;14.35;;;;;;;;;;5070528;28;20064;-64
2022/10/30 11:46:46;;;;;;;20.35;12.63;;;;;;;;;;5070762;28;20131;-64
2022/10/30 11:49:31;;;;;;;28.75;13.68;;;;;;;;;;5070277;28;20459;-64
2022/10/30 11:51:57;;;;;;;23.80;12.57;;;;;;;;;;5069006;28;20076;-64
2022/10/30 11:54:23;;;;;;;25.13;13.77;;;;;;;;;;5070606;28;20119;-65
2022/10/30 11:56:50;;;;;;;29.60;12.80;;;;;;;;;;5072456;28;20044;-64
2022/10/30 11:59:21;;;;;;;30.58;12.48;;;;;;;;;;5073707;28;20052;-64
2022/10/30 12:02:17;;;;;;;25.77;12.18;;;;;;;;;;5073013;28;20055;-64
2022/10/30 12:04:43;;;;;;;24.13;11.93;;;;;;;;;;5072879;28;20095;-64
2022/10/30 12:07:28;;;;;;;23.33;11.80;;;;;;;;;;5074047;28;20068;-64
2022/10/30 12:09:56;;;;;;;25.48;12.20;;;;;;;;;;5074045;28;20123;-64
2022/10/30 12:12:33;;;;;;;23.50;11.68;;;;;;;;;;5072838;28;20395;-64
2022/10/30 12:15:08;;;;;;;24.42;10.85;;;;;;;;;;5072330;28;20053;-64
2022/10/30 12:17:34;;;;;;;26.27;10.65;;;;;;;;;;5074281;28;20044;-64
2022/10/30 12:20:02;;;;;;;23.30;10.85;;;;;;;;;;5072879;28;20548;-64
2022/10/30 12:22:32;;;;;;;21.90;10.45;;;;;;;;;;5072547;28;20455;-64
2022/10/30 12:25:01;;;;;;;24.17;10.75;;;;;;;;;;5074162;28;20044;-64
2022/10/30 12:27:29;;;;;;;23.08;9.82;;;;;;;;;;5072786;28;20045;-64
2022/10/30 12:29:55;;;;;;;18.13;10.00;;;;;;;;;;5071975;28;20051;-64
2022/10/30 12:32:23;;;;;;;20.42;9.77;;;;;;;;;;5074053;28;20037;-64
2022/10/30 12:34:52;;;;;;;20.63;10.07;;;;;;;;;;5106602;28;20040;-64
2022/10/30 12:37:27;;;;;;;22.52;10.40;;;;;;;;;;5072194;28;20068;-64
2022/10/30 12:39:56;;;;;;;21.42;10.32;;;;;;;;;;5072253;28;20388;-64
2022/10/30 12:42:23;;;;;;;25.10;11.07;;;;;;;;;;5073847;28;20072;-64
2022/10/30 12:45:08;;;;;;;20.38;10.15;;;;;;;;;;5073543;28;20076;-64
2022/10/30 12:47:54;;;;;;;21.38;9.65;;;;;;;;;;5072222;28;20041;-64
2022/10/30 12:50:37;;;;;;;24.83;9.75;;;;;;;;;;5071572;28;20045;-64
2022/10/30 12:53:08;;;;;;;21.98;10.15;;;;;;;;;;5073738;28;20043;-64
2022/10/30 12:55:43;;;;;;;22.33;10.13;;;;;;;;;;5073650;28;20063;-64
2022/10/30 12:58:28;;;;;;;23.63;9.55;;;;;;;;;;5071592;28;20028;-64
2022/10/30 13:00:57;;;;;;;17.50;9.05;;;;;;;;;;5073298;28;20040;-64
2022/10/30 13:03:36;;;;;;;22.20;10.13;;;;;;;;;;5106158;28;20127;-64
2022/10/30 13:06:09;;;;;;;21.35;8.93;;;;;;;;;;5072743;28;20154;-64
2022/10/30 13:08:43;;;;;;;24.67;9.57;;;;;;;;;;5072370;28;20037;-64
2022/10/30 13:11:09;;;;;;;28.98;9.15;;;;;;;;;;5073434;28;20082;-64
2022/10/30 13:13:43;;;;;;;25.23;8.73;;;;;;;;;;5072561;28;20520;-64
2022/10/30 13:16:15;;;;;;;19.40;7.78;;;;;;;;;;5073292;28;20042;-64
2022/10/30 13:18:41;;;;;;;;;;;;;;;;;;5073708;28;20532;-64
2022/10/30 13:21:10;;;;;;;17.50;8.05;;;;;;;;;;5072745;28;20266;-65
2022/10/30 13:23:39;;;;;;;19.02;8.23;;;;;;;;;;5073189;28;20046;-65
2022/10/30 13:26:12;;;;;;;20.13;8.43;;;;;;;;;;5072719;28;20046;-65
2022/10/30 13:28:43;;;;;;;18.98;8.55;;;;;;;;;;5070957;28;20040;-64
2022/10/30 13:31:09;;;;;;;24.33;8.77;;;;;;;;;;5072708;28;20040;-64
2022/10/30 13:33:52;;;;;;;21.10;8.18;;;;;;;;;;5105169;28;20044;-64
2022/10/30 13:36:23;;;;;;;21.52;7.32;;;;;;;;;;5072545;28;20040;-64
2022/10/30 13:39:00;;;;;;;15.02;6.63;;;;;;;;;;5105206;28;20044;-64
2022/10/30 13:41:43;;;;;;;16.25;7.50;;;;;;;;;;5072532;28;20045;-64
2022/10/30 13:44:20;;;;;;;20.33;7.50;;;;;;;;;;5072756;28;20213;-64
2022/10/30 13:46:46;;;;;;;16.00;6.75;;;;;;;;;;5105280;28;20670;-64
2022/10/30 13:49:12;;;;;;;15.50;7.72;;;;;;;;;;5104414;28;20098;-64
2022/10/30 13:51:57;;;;;;;17.25;7.40;;;;;;;;;;5104908;28;20090;-64
2022/10/30 13:54:46;;;;;;;19.63;8.68;;;;;;;;;;5072230;28;20517;-64
2022/10/30 13:57:18;;;;;;;17.80;8.70;;;;;;;;;;5071200;28;20052;-65
2022/10/30 13:59:44;;;;;;;18.52;9.02;;;;;;;;;;5072195;28;20123;-65
2022/10/30 14:02:10;;;;;;;22.35;9.77;;;;;;;;;;5072393;28;20052;-65
2022/10/30 14:04:39;;;;;;;20.75;8.80;;;;;;;;;;5104589;28;20368;-65
2022/10/30 14:07:20;;;;;;;18.13;8.70;;;;;;;;;;5104742;28;20045;-65
2022/10/30 14:10:02;;;;;;;20.63;9.57;;;;;;;;;;5070654;28;20049;-65
2022/10/30 14:12:46;;;;;;;21.07;8.57;;;;;;;;;;5070189;28;20364;-65
2022/10/30 14:15:31;;;;;;;18.15;8.70;;;;;;;;;;5071596;28;20290;-65
2022/10/30 14:18:12;;;;;;;24.73;9.02;;;;;;;;;;5072000;28;20044;-65
2022/10/30 14:20:42;;;;;;;19.33;9.20;;;;;;;;;;5070106;28;20045;-65
2022/10/30 14:23:12;;;;;;;23.42;10.70;;;;;;;;;;5071919;28;20083;-65
2022/10/30 14:25:38;;;;;;;20.52;9.93;;;;;;;;;;5071725;28;20474;-65
2022/10/30 14:28:13;;;;;;;20.02;10.35;;;;;;;;;;5071429;28;20037;-65
2022/10/30 14:30:43;;;;;;;20.85;11.88;;;;;;;;;;5069882;28;20041;-65
2022/10/30 14:33:29;;;;;;;20.70;10.68;;;;;;;;;;5071756;28;20040;-64